sensor_id;sensor_type;location;lat;lon;timestamp;temperature;humidity
51007;DHT22;37034;47.886;-3.904;2022-12-07T00:01:29;6.80;91.80
51007;DHT22;37034;47.886;-3.904;2022-12-07T00:03:56;6.80;91.80
51007;DHT22;37034;47.886;-3.904;2022-12-07T00:06:26;6.70;91.80
51007;DHT22;37034;47.886;-3.904;2022-12-07T00:08:51;6.70;91.90
51007;DHT22;37034;47.886;-3.904;2022-12-07T00:11:18;6.70;92.10
51007;DHT22;37034;47.886;-3.904;2022-12-07T00:13:44;6.70;92.20
51007;DHT22;37034;47.886;-3.904;2022-12-07T00:16:11;6.60;92.40
51007;DHT22;37034;47.886;-3.904;2022-12-07T00:18:36;6.60;92.50
51007;DHT22;37034;47.886;-3.904;2022-12-07T00:21:02;6.60;92.60
51007;DHT22;37034;47.886;-3.904;2022-12-07T00:23:28;6.60;92.70
51007;DHT22;37034;47.886;-3.904;2022-12-07T00:25:54;6.60;92.60
51007;DHT22;37034;47.886;-3.904;2022-12-07T00:28:20;6.70;92.40
51007;DHT22;37034;47.886;-3.904;2022-12-07T00:30:45;6.70;92.50
51007;DHT22;37034;47.886;-3.904;2022-12-07T00:33:11;6.60;92.20
51007;DHT22;37034;47.886;-3.904;2022-12-07T00:35:36;6.60;92.10
51007;DHT22;37034;47.886;-3.904;2022-12-07T00:38:02;6.60;92.30
51007;DHT22;37034;47.886;-3.904;2022-12-07T00:40:27;6.60;92.30
51007;DHT22;37034;47.886;-3.904;2022-12-07T00:42:53;6.50;92.30
51007;DHT22;37034;47.886;-3.904;2022-12-07T00:45:18;6.50;92.40
51007;DHT22;37034;47.886;-3.904;2022-12-07T00:47:44;6.50;92.40
51007;DHT22;37034;47.886;-3.904;2022-12-07T00:50:09;6.50;92.40
51007;DHT22;37034;47.886;-3.904;2022-12-07T00:52:35;6.50;92.50
51007;DHT22;37034;47.886;-3.904;2022-12-07T00:55:00;6.50;92.50
51007;DHT22;37034;47.886;-3.904;2022-12-07T00:57:26;6.50;92.50
51007;DHT22;37034;47.886;-3.904;2022-12-07T00:59:51;6.50;92.50
51007;DHT22;37034;47.886;-3.904;2022-12-07T01:02:20;6.50;92.40
51007;DHT22;37034;47.886;-3.904;2022-12-07T01:04:46;6.50;92.50
51007;DHT22;37034;47.886;-3.904;2022-12-07T01:07:12;6.50;92.40
51007;DHT22;37034;47.886;-3.904;2022-12-07T01:09:37;6.50;92.40
51007;DHT22;37034;47.886;-3.904;2022-12-07T01:12:03;6.50;92.40
51007;DHT22;37034;47.886;-3.904;2022-12-07T01:14:28;6.50;92.40
51007;DHT22;37034;47.886;-3.904;2022-12-07T01:16:54;6.50;92.50
51007;DHT22;37034;47.886;-3.904;2022-12-07T01:19:19;6.50;92.40
51007;DHT22;37034;47.886;-3.904;2022-12-07T01:21:45;6.50;92.50
51007;DHT22;37034;47.886;-3.904;2022-12-07T01:24:10;6.50;92.50
51007;DHT22;37034;47.886;-3.904;2022-12-07T01:26:36;6.50;92.50
51007;DHT22;37034;47.886;-3.904;2022-12-07T01:29:02;6.50;92.50
51007;DHT22;37034;47.886;-3.904;2022-12-07T01:31:28;6.50;92.50
51007;DHT22;37034;47.886;-3.904;2022-12-07T01:33:55;6.50;92.50
51007;DHT22;37034;47.886;-3.904;2022-12-07T01:36:24;6.50;92.50
51007;DHT22;37034;47.886;-3.904;2022-12-07T01:38:51;6.40;92.50
51007;DHT22;37034;47.886;-3.904;2022-12-07T01:41:18;6.40;92.60
51007;DHT22;37034;47.886;-3.904;2022-12-07T01:46:27;6.40;92.70
51007;DHT22;37034;47.886;-3.904;2022-12-07T01:48:53;6.40;92.60
51007;DHT22;37034;47.886;-3.904;2022-12-07T01:51:18;6.40;92.60
51007;DHT22;37034;47.886;-3.904;2022-12-07T01:53:44;6.30;92.70
51007;DHT22;37034;47.886;-3.904;2022-12-07T01:56:10;6.40;92.80
51007;DHT22;37034;47.886;-3.904;2022-12-07T01:58:37;6.30;92.80
51007;DHT22;37034;47.886;-3.904;2022-12-07T02:01:02;6.40;92.80
51007;DHT22;37034;47.886;-3.904;2022-12-07T02:03:32;6.40;92.80
51007;DHT22;37034;47.886;-3.904;2022-12-07T02:05:59;6.40;92.80
51007;DHT22;37034;47.886;-3.904;2022-12-07T02:08:25;6.40;92.80
51007;DHT22;37034;47.886;-3.904;2022-12-07T02:10:51;6.40;92.80
51007;DHT22;37034;47.886;-3.904;2022-12-07T02:13:18;6.50;92.70
51007;DHT22;37034;47.886;-3.904;2022-12-07T02:18:25;6.40;92.80
51007;DHT22;37034;47.886;-3.904;2022-12-07T02:21:07;6.40;92.90
51007;DHT22;37034;47.886;-3.904;2022-12-07T02:26:30;6.50;92.80
51007;DHT22;37034;47.886;-3.904;2022-12-07T02:29:46;6.50;92.50
51007;DHT22;37034;47.886;-3.904;2022-12-07T02:32:06;6.50;92.20
51007;DHT22;37034;47.886;-3.904;2022-12-07T02:34:42;6.50;92.30
51007;DHT22;37034;47.886;-3.904;2022-12-07T02:37:18;6.40;92.30
51007;DHT22;37034;47.886;-3.904;2022-12-07T02:39:48;6.40;92.40
51007;DHT22;37034;47.886;-3.904;2022-12-07T02:42:16;6.30;92.40
51007;DHT22;37034;47.886;-3.904;2022-12-07T02:44:42;6.30;92.40
51007;DHT22;37034;47.886;-3.904;2022-12-07T02:47:09;6.30;92.40
51007;DHT22;37034;47.886;-3.904;2022-12-07T02:49:37;6.30;92.50
51007;DHT22;37034;47.886;-3.904;2022-12-07T02:52:04;6.30;92.40
51007;DHT22;37034;47.886;-3.904;2022-12-07T02:54:29;6.30;92.40
51007;DHT22;37034;47.886;-3.904;2022-12-07T03:07:03;6.10;92.60
51007;DHT22;37034;47.886;-3.904;2022-12-07T03:09:36;6.10;92.60
51007;DHT22;37034;47.886;-3.904;2022-12-07T03:12:08;6.10;92.60
51007;DHT22;37034;47.886;-3.904;2022-12-07T03:15:03;6.10;92.60
51007;DHT22;37034;47.886;-3.904;2022-12-07T03:17:22;6.10;92.50
51007;DHT22;37034;47.886;-3.904;2022-12-07T03:19:49;6.20;92.50
51007;DHT22;37034;47.886;-3.904;2022-12-07T03:22:17;6.20;92.50
51007;DHT22;37034;47.886;-3.904;2022-12-07T03:24:44;6.10;92.50
51007;DHT22;37034;47.886;-3.904;2022-12-07T03:27:13;6.10;92.50
51007;DHT22;37034;47.886;-3.904;2022-12-07T03:29:43;6.10;92.40
51007;DHT22;37034;47.886;-3.904;2022-12-07T03:32:12;6.10;92.50
51007;DHT22;37034;47.886;-3.904;2022-12-07T03:37:06;6.10;92.60
51007;DHT22;37034;47.886;-3.904;2022-12-07T03:39:38;6.10;92.60
51007;DHT22;37034;47.886;-3.904;2022-12-07T03:42:05;6.10;92.50
51007;DHT22;37034;47.886;-3.904;2022-12-07T03:44:33;6.10;92.50
51007;DHT22;37034;47.886;-3.904;2022-12-07T03:47:04;6.20;92.50
51007;DHT22;37034;47.886;-3.904;2022-12-07T03:49:32;6.20;92.40
51007;DHT22;37034;47.886;-3.904;2022-12-07T03:57:20;6.20;92.40
51007;DHT22;37034;47.886;-3.904;2022-12-07T03:59:47;6.20;92.40
51007;DHT22;37034;47.886;-3.904;2022-12-07T04:02:13;6.20;92.30
51007;DHT22;37034;47.886;-3.904;2022-12-07T04:04:39;6.20;92.30
51007;DHT22;37034;47.886;-3.904;2022-12-07T04:07:05;6.20;92.40
51007;DHT22;37034;47.886;-3.904;2022-12-07T04:09:30;6.20;92.40
51007;DHT22;37034;47.886;-3.904;2022-12-07T04:11:56;6.20;92.40
51007;DHT22;37034;47.886;-3.904;2022-12-07T04:14:21;6.20;92.20
51007;DHT22;37034;47.886;-3.904;2022-12-07T04:16:48;6.20;92.10
51007;DHT22;37034;47.886;-3.904;2022-12-07T04:19:14;6.20;92.10
51007;DHT22;37034;47.886;-3.904;2022-12-07T04:21:39;6.20;92.10
51007;DHT22;37034;47.886;-3.904;2022-12-07T04:24:05;6.20;92.00
51007;DHT22;37034;47.886;-3.904;2022-12-07T04:26:31;6.10;92.10
51007;DHT22;37034;47.886;-3.904;2022-12-07T04:28:57;6.10;92.20
51007;DHT22;37034;47.886;-3.904;2022-12-07T04:31:22;6.10;92.20
51007;DHT22;37034;47.886;-3.904;2022-12-07T04:33:48;6.10;92.20
51007;DHT22;37034;47.886;-3.904;2022-12-07T04:36:14;6.10;92.30
51007;DHT22;37034;47.886;-3.904;2022-12-07T04:38:39;6.10;92.40
51007;DHT22;37034;47.886;-3.904;2022-12-07T04:41:05;6.10;92.30
51007;DHT22;37034;47.886;-3.904;2022-12-07T04:43:31;6.10;92.20
51007;DHT22;37034;47.886;-3.904;2022-12-07T04:45:56;6.10;92.20
51007;DHT22;37034;47.886;-3.904;2022-12-07T04:48:22;6.10;92.20
51007;DHT22;37034;47.886;-3.904;2022-12-07T04:50:48;6.10;92.20
51007;DHT22;37034;47.886;-3.904;2022-12-07T04:53:14;6.00;92.20
51007;DHT22;37034;47.886;-3.904;2022-12-07T04:55:40;6.00;92.40
51007;DHT22;37034;47.886;-3.904;2022-12-07T04:58:05;5.90;92.30
51007;DHT22;37034;47.886;-3.904;2022-12-07T05:00:31;5.90;92.30
51007;DHT22;37034;47.886;-3.904;2022-12-07T05:02:56;5.90;92.40
51007;DHT22;37034;47.886;-3.904;2022-12-07T05:05:22;5.90;92.40
51007;DHT22;37034;47.886;-3.904;2022-12-07T05:07:48;5.90;92.40
51007;DHT22;37034;47.886;-3.904;2022-12-07T05:10:13;5.90;92.40
51007;DHT22;37034;47.886;-3.904;2022-12-07T05:12:39;5.90;92.40
51007;DHT22;37034;47.886;-3.904;2022-12-07T05:15:04;6.00;92.40
51007;DHT22;37034;47.886;-3.904;2022-12-07T05:17:30;6.00;92.30
51007;DHT22;37034;47.886;-3.904;2022-12-07T05:19:55;6.00;92.20
51007;DHT22;37034;47.886;-3.904;2022-12-07T05:22:21;6.00;92.20
51007;DHT22;37034;47.886;-3.904;2022-12-07T05:24:46;6.00;92.20
51007;DHT22;37034;47.886;-3.904;2022-12-07T05:27:12;5.90;92.20
51007;DHT22;37034;47.886;-3.904;2022-12-07T05:29:38;5.90;92.10
51007;DHT22;37034;47.886;-3.904;2022-12-07T05:32:03;5.90;92.20
51007;DHT22;37034;47.886;-3.904;2022-12-07T05:34:29;5.90;92.30
51007;DHT22;37034;47.886;-3.904;2022-12-07T05:36:54;5.90;92.30
51007;DHT22;37034;47.886;-3.904;2022-12-07T05:39:20;5.90;92.50
51007;DHT22;37034;47.886;-3.904;2022-12-07T05:41:45;5.90;92.40
51007;DHT22;37034;47.886;-3.904;2022-12-07T05:44:29;5.90;92.10
51007;DHT22;37034;47.886;-3.904;2022-12-07T05:46:55;5.90;92.00
51007;DHT22;37034;47.886;-3.904;2022-12-07T05:49:20;5.80;92.00
51007;DHT22;37034;47.886;-3.904;2022-12-07T05:51:46;5.80;92.00
51007;DHT22;37034;47.886;-3.904;2022-12-07T05:54:11;5.80;92.10
51007;DHT22;37034;47.886;-3.904;2022-12-07T05:56:37;5.70;92.10
51007;DHT22;37034;47.886;-3.904;2022-12-07T05:59:02;5.70;92.20
51007;DHT22;37034;47.886;-3.904;2022-12-07T06:01:46;5.70;92.30
51007;DHT22;37034;47.886;-3.904;2022-12-07T06:04:12;5.70;92.30
51007;DHT22;37034;47.886;-3.904;2022-12-07T06:06:37;5.70;92.30
51007;DHT22;37034;47.886;-3.904;2022-12-07T06:09:03;5.70;92.30
51007;DHT22;37034;47.886;-3.904;2022-12-07T06:11:29;5.60;92.20
51007;DHT22;37034;47.886;-3.904;2022-12-07T06:14:13;5.60;92.30
51007;DHT22;37034;47.886;-3.904;2022-12-07T06:16:38;5.60;92.30
51007;DHT22;37034;47.886;-3.904;2022-12-07T06:19:04;5.60;92.30
51007;DHT22;37034;47.886;-3.904;2022-12-07T06:21:29;5.60;92.30
51007;DHT22;37034;47.886;-3.904;2022-12-07T06:23:55;5.60;92.20
51007;DHT22;37034;47.886;-3.904;2022-12-07T06:26:21;5.50;92.10
51007;DHT22;37034;47.886;-3.904;2022-12-07T06:28:47;5.60;92.20
51007;DHT22;37034;47.886;-3.904;2022-12-07T06:31:12;5.60;92.20
51007;DHT22;37034;47.886;-3.904;2022-12-07T06:33:38;5.60;92.30
51007;DHT22;37034;47.886;-3.904;2022-12-07T06:36:03;5.60;92.20
51007;DHT22;37034;47.886;-3.904;2022-12-07T06:38:29;5.60;92.30
51007;DHT22;37034;47.886;-3.904;2022-12-07T06:40:54;5.60;92.20
51007;DHT22;37034;47.886;-3.904;2022-12-07T06:43:20;5.60;92.30
51007;DHT22;37034;47.886;-3.904;2022-12-07T06:45:45;5.60;92.20
51007;DHT22;37034;47.886;-3.904;2022-12-07T06:48:11;5.60;92.20
51007;DHT22;37034;47.886;-3.904;2022-12-07T06:50:36;5.60;92.20
51007;DHT22;37034;47.886;-3.904;2022-12-07T06:53:02;5.60;92.10
51007;DHT22;37034;47.886;-3.904;2022-12-07T06:55:27;5.50;92.10
51007;DHT22;37034;47.886;-3.904;2022-12-07T06:57:53;5.50;92.30
51007;DHT22;37034;47.886;-3.904;2022-12-07T07:00:19;5.50;92.40
51007;DHT22;37034;47.886;-3.904;2022-12-07T07:02:44;5.50;92.50
51007;DHT22;37034;47.886;-3.904;2022-12-07T07:05:10;5.50;92.70
51007;DHT22;37034;47.886;-3.904;2022-12-07T07:07:35;5.60;92.40
51007;DHT22;37034;47.886;-3.904;2022-12-07T07:10:01;5.60;92.10
51007;DHT22;37034;47.886;-3.904;2022-12-07T07:12:26;5.70;92.00
51007;DHT22;37034;47.886;-3.904;2022-12-07T07:14:52;5.60;92.00
51007;DHT22;37034;47.886;-3.904;2022-12-07T07:17:17;5.60;91.90
51007;DHT22;37034;47.886;-3.904;2022-12-07T07:19:43;5.50;92.00
51007;DHT22;37034;47.886;-3.904;2022-12-07T07:22:08;5.50;92.00
51007;DHT22;37034;47.886;-3.904;2022-12-07T07:24:34;5.50;92.00
51007;DHT22;37034;47.886;-3.904;2022-12-07T07:26:59;5.50;92.00
51007;DHT22;37034;47.886;-3.904;2022-12-07T07:29:25;5.50;92.00
51007;DHT22;37034;47.886;-3.904;2022-12-07T07:31:50;5.50;92.00
51007;DHT22;37034;47.886;-3.904;2022-12-07T07:34:16;5.40;92.00
51007;DHT22;37034;47.886;-3.904;2022-12-07T07:36:41;5.40;92.10
51007;DHT22;37034;47.886;-3.904;2022-12-07T07:39:07;5.40;92.10
51007;DHT22;37034;47.886;-3.904;2022-12-07T07:41:32;5.40;92.20
51007;DHT22;37034;47.886;-3.904;2022-12-07T07:43:58;5.50;92.20
51007;DHT22;37034;47.886;-3.904;2022-12-07T07:46:23;5.50;92.10
51007;DHT22;37034;47.886;-3.904;2022-12-07T07:48:49;5.40;92.20
51007;DHT22;37034;47.886;-3.904;2022-12-07T07:51:16;5.40;92.40
51007;DHT22;37034;47.886;-3.904;2022-12-07T07:53:42;5.40;92.40
51007;DHT22;37034;47.886;-3.904;2022-12-07T07:56:08;5.50;92.40
51007;DHT22;37034;47.886;-3.904;2022-12-07T07:58:33;5.50;92.40
51007;DHT22;37034;47.886;-3.904;2022-12-07T08:01:05;5.50;92.40
51007;DHT22;37034;47.886;-3.904;2022-12-07T08:03:31;5.50;92.40
51007;DHT22;37034;47.886;-3.904;2022-12-07T08:05:56;5.50;92.30
51007;DHT22;37034;47.886;-3.904;2022-12-07T08:08:22;5.50;92.30
51007;DHT22;37034;47.886;-3.904;2022-12-07T08:10:47;5.60;92.20
51007;DHT22;37034;47.886;-3.904;2022-12-07T08:13:15;5.60;92.10
51007;DHT22;37034;47.886;-3.904;2022-12-07T08:15:44;5.60;92.10
51007;DHT22;37034;47.886;-3.904;2022-12-07T08:18:10;5.60;92.00
51007;DHT22;37034;47.886;-3.904;2022-12-07T08:20:36;5.60;92.00
51007;DHT22;37034;47.886;-3.904;2022-12-07T08:23:02;5.60;92.00
51007;DHT22;37034;47.886;-3.904;2022-12-07T08:25:28;5.50;92.00
51007;DHT22;37034;47.886;-3.904;2022-12-07T08:27:53;5.50;92.10
51007;DHT22;37034;47.886;-3.904;2022-12-07T08:30:19;5.50;92.10
51007;DHT22;37034;47.886;-3.904;2022-12-07T08:32:45;5.40;92.30
51007;DHT22;37034;47.886;-3.904;2022-12-07T08:35:11;5.50;92.30
51007;DHT22;37034;47.886;-3.904;2022-12-07T08:37:38;5.50;92.10
51007;DHT22;37034;47.886;-3.904;2022-12-07T08:40:04;5.50;92.20
51007;DHT22;37034;47.886;-3.904;2022-12-07T08:42:30;5.50;92.20
51007;DHT22;37034;47.886;-3.904;2022-12-07T08:45:12;5.60;92.30
51007;DHT22;37034;47.886;-3.904;2022-12-07T08:47:40;5.60;92.30
51007;DHT22;37034;47.886;-3.904;2022-12-07T08:50:06;5.70;92.30
51007;DHT22;37034;47.886;-3.904;2022-12-07T08:52:33;5.70;92.30
51007;DHT22;37034;47.886;-3.904;2022-12-07T08:54:59;5.70;92.40
51007;DHT22;37034;47.886;-3.904;2022-12-07T08:57:26;5.80;92.30
51007;DHT22;37034;47.886;-3.904;2022-12-07T08:59:52;5.80;92.40
51007;DHT22;37034;47.886;-3.904;2022-12-07T09:02:17;5.90;92.40
51007;DHT22;37034;47.886;-3.904;2022-12-07T09:04:43;5.90;92.50
51007;DHT22;37034;47.886;-3.904;2022-12-07T09:07:09;6.00;92.50
51007;DHT22;37034;47.886;-3.904;2022-12-07T09:09:34;6.10;92.50
51007;DHT22;37034;47.886;-3.904;2022-12-07T09:12:00;6.20;92.50
51007;DHT22;37034;47.886;-3.904;2022-12-07T09:14:25;6.30;92.60
51007;DHT22;37034;47.886;-3.904;2022-12-07T09:16:51;6.30;92.60
51007;DHT22;37034;47.886;-3.904;2022-12-07T09:19:16;6.50;92.80
51007;DHT22;37034;47.886;-3.904;2022-12-07T09:21:42;6.60;92.50
51007;DHT22;37034;47.886;-3.904;2022-12-07T09:24:07;6.60;92.40
51007;DHT22;37034;47.886;-3.904;2022-12-07T09:26:34;6.50;92.40
51007;DHT22;37034;47.886;-3.904;2022-12-07T09:29:01;6.30;92.80
51007;DHT22;37034;47.886;-3.904;2022-12-07T09:31:27;6.40;92.80
51007;DHT22;37034;47.886;-3.904;2022-12-07T09:33:56;6.40;93.10
51007;DHT22;37034;47.886;-3.904;2022-12-07T09:36:22;6.60;92.90
51007;DHT22;37034;47.886;-3.904;2022-12-07T09:38:48;6.70;92.70
51007;DHT22;37034;47.886;-3.904;2022-12-07T09:41:13;6.60;92.60
51007;DHT22;37034;47.886;-3.904;2022-12-07T09:43:40;6.70;92.90
51007;DHT22;37034;47.886;-3.904;2022-12-07T09:46:08;6.80;92.80
51007;DHT22;37034;47.886;-3.904;2022-12-07T09:48:37;6.90;92.70
51007;DHT22;37034;47.886;-3.904;2022-12-07T09:53:39;7.10;92.70
51007;DHT22;37034;47.886;-3.904;2022-12-07T09:56:04;7.10;92.70
51007;DHT22;37034;47.886;-3.904;2022-12-07T09:58:30;7.30;92.50
51007;DHT22;37034;47.886;-3.904;2022-12-07T10:00:59;7.50;92.40
51007;DHT22;37034;47.886;-3.904;2022-12-07T10:03:27;7.60;92.40
51007;DHT22;37034;47.886;-3.904;2022-12-07T10:05:54;7.70;92.20
51007;DHT22;37034;47.886;-3.904;2022-12-07T10:08:20;7.70;92.30
51007;DHT22;37034;47.886;-3.904;2022-12-07T10:10:48;7.80;92.40
51007;DHT22;37034;47.886;-3.904;2022-12-07T10:13:16;8.00;92.10
51007;DHT22;37034;47.886;-3.904;2022-12-07T10:21:01;8.20;92.20
51007;DHT22;37034;47.886;-3.904;2022-12-07T10:23:27;8.40;91.90
51007;DHT22;37034;47.886;-3.904;2022-12-07T10:25:53;8.30;91.90
51007;DHT22;37034;47.886;-3.904;2022-12-07T10:28:20;8.40;92.10
51007;DHT22;37034;47.886;-3.904;2022-12-07T10:30:56;8.50;92.10
51007;DHT22;37034;47.886;-3.904;2022-12-07T10:33:28;8.60;91.80
51007;DHT22;37034;47.886;-3.904;2022-12-07T10:35:54;8.80;91.60
51007;DHT22;37034;47.886;-3.904;2022-12-07T10:38:20;8.90;91.50
51007;DHT22;37034;47.886;-3.904;2022-12-07T10:40:46;8.90;91.70
51007;DHT22;37034;47.886;-3.904;2022-12-07T10:53:08;9.30;91.10
51007;DHT22;37034;47.886;-3.904;2022-12-07T10:55:59;9.40;91.20
51007;DHT22;37034;47.886;-3.904;2022-12-07T11:11:33;10.20;90.30
51007;DHT22;37034;47.886;-3.904;2022-12-07T11:13:56;10.20;90.40
51007;DHT22;37034;47.886;-3.904;2022-12-07T11:17:10;10.20;90.20
51007;DHT22;37034;47.886;-3.904;2022-12-07T11:21:48;10.30;89.60
51007;DHT22;37034;47.886;-3.904;2022-12-07T11:24:20;10.20;89.60
51007;DHT22;37034;47.886;-3.904;2022-12-07T11:36:56;10.50;88.20
51007;DHT22;37034;47.886;-3.904;2022-12-07T11:42:00;10.50;88.10
51007;DHT22;37034;47.886;-3.904;2022-12-07T11:44:50;10.50;88.20
51007;DHT22;37034;47.886;-3.904;2022-12-07T11:47:34;10.50;87.50
51007;DHT22;37034;47.886;-3.904;2022-12-07T11:54:51;10.60;88.00
51007;DHT22;37034;47.886;-3.904;2022-12-07T11:57:28;10.60;88.50
51007;DHT22;37034;47.886;-3.904;2022-12-07T11:59:57;10.60;87.90
51007;DHT22;37034;47.886;-3.904;2022-12-07T12:02:28;10.60;88.00
51007;DHT22;37034;47.886;-3.904;2022-12-07T12:05:02;10.70;87.30
51007;DHT22;37034;47.886;-3.904;2022-12-07T12:07:31;10.70;88.10
51007;DHT22;37034;47.886;-3.904;2022-12-07T12:10:16;10.70;88.20
51007;DHT22;37034;47.886;-3.904;2022-12-07T12:13:00;10.80;87.70
51007;DHT22;37034;47.886;-3.904;2022-12-07T12:15:48;10.80;87.90
51007;DHT22;37034;47.886;-3.904;2022-12-07T12:21:02;10.90;87.70
51007;DHT22;37034;47.886;-3.904;2022-12-07T12:26:15;11.00;87.00
51007;DHT22;37034;47.886;-3.904;2022-12-07T12:31:14;11.00;86.80
51007;DHT22;37034;47.886;-3.904;2022-12-07T12:33:52;10.90;86.70
51007;DHT22;37034;47.886;-3.904;2022-12-07T12:36:25;10.90;86.20
51007;DHT22;37034;47.886;-3.904;2022-12-07T12:44:46;10.90;86.70
51007;DHT22;37034;47.886;-3.904;2022-12-07T12:51:51;10.40;86.30
51007;DHT22;37034;47.886;-3.904;2022-12-07T12:54:20;10.30;86.10
51007;DHT22;37034;47.886;-3.904;2022-12-07T13:01:46;10.60;86.00
51007;DHT22;37034;47.886;-3.904;2022-12-07T13:06:47;10.60;85.50
51007;DHT22;37034;47.886;-3.904;2022-12-07T13:09:23;10.60;85.20
51007;DHT22;37034;47.886;-3.904;2022-12-07T13:11:50;10.60;85.30
51007;DHT22;37034;47.886;-3.904;2022-12-07T13:17:12;10.70;85.50
51007;DHT22;37034;47.886;-3.904;2022-12-07T13:19:58;10.80;85.50
51007;DHT22;37034;47.886;-3.904;2022-12-07T13:24:59;11.00;84.70
51007;DHT22;37034;47.886;-3.904;2022-12-07T13:27:28;11.00;84.30
51007;DHT22;37034;47.886;-3.904;2022-12-07T13:29:55;11.00;84.20
51007;DHT22;37034;47.886;-3.904;2022-12-07T13:32:27;11.10;84.20
51007;DHT22;37034;47.886;-3.904;2022-12-07T13:34:53;11.00;84.10
51007;DHT22;37034;47.886;-3.904;2022-12-07T13:37:28;11.00;84.50
51007;DHT22;37034;47.886;-3.904;2022-12-07T13:39:58;11.10;84.60
51007;DHT22;37034;47.886;-3.904;2022-12-07T13:44:50;11.20;83.40
51007;DHT22;37034;47.886;-3.904;2022-12-07T13:49:59;11.20;83.80
51007;DHT22;37034;47.886;-3.904;2022-12-07T13:52:29;11.20;83.60
51007;DHT22;37034;47.886;-3.904;2022-12-07T13:57:30;11.20;83.40
51007;DHT22;37034;47.886;-3.904;2022-12-07T13:59:57;11.20;83.40
51007;DHT22;37034;47.886;-3.904;2022-12-07T14:04:49;11.30;83.20
51007;DHT22;37034;47.886;-3.904;2022-12-07T14:07:32;11.20;82.80
51007;DHT22;37034;47.886;-3.904;2022-12-07T14:10:05;11.20;83.20
51007;DHT22;37034;47.886;-3.904;2022-12-07T14:12:32;11.20;83.30
51007;DHT22;37034;47.886;-3.904;2022-12-07T14:15:00;11.30;83.00
51007;DHT22;37034;47.886;-3.904;2022-12-07T14:17:27;11.30;83.40
51007;DHT22;37034;47.886;-3.904;2022-12-07T14:19:59;11.30;83.10
51007;DHT22;37034;47.886;-3.904;2022-12-07T14:22:27;11.30;83.40
51007;DHT22;37034;47.886;-3.904;2022-12-07T14:25:13;11.30;82.60
51007;DHT22;37034;47.886;-3.904;2022-12-07T14:27:46;11.40;82.40
51007;DHT22;37034;47.886;-3.904;2022-12-07T14:30:16;11.30;82.40
51007;DHT22;37034;47.886;-3.904;2022-12-07T14:32:42;11.30;82.30
51007;DHT22;37034;47.886;-3.904;2022-12-07T14:35:14;11.30;82.80
51007;DHT22;37034;47.886;-3.904;2022-12-07T14:37:40;11.30;82.90
51007;DHT22;37034;47.886;-3.904;2022-12-07T14:40:06;11.30;82.40
51007;DHT22;37034;47.886;-3.904;2022-12-07T14:42:33;11.30;82.10
51007;DHT22;37034;47.886;-3.904;2022-12-07T14:44:59;11.30;82.60
51007;DHT22;37034;47.886;-3.904;2022-12-07T14:47:25;11.30;82.20
51007;DHT22;37034;47.886;-3.904;2022-12-07T14:49:51;11.30;82.60
51007;DHT22;37034;47.886;-3.904;2022-12-07T14:52:18;11.20;82.20
51007;DHT22;37034;47.886;-3.904;2022-12-07T14:54:44;11.20;82.50
51007;DHT22;37034;47.886;-3.904;2022-12-07T14:57:10;11.20;82.40
51007;DHT22;37034;47.886;-3.904;2022-12-07T14:59:36;11.20;82.60
51007;DHT22;37034;47.886;-3.904;2022-12-07T15:02:02;11.20;82.70
51007;DHT22;37034;47.886;-3.904;2022-12-07T15:04:27;11.10;83.00
51007;DHT22;37034;47.886;-3.904;2022-12-07T15:06:57;11.10;83.00
51007;DHT22;37034;47.886;-3.904;2022-12-07T15:09:22;11.00;83.20
51007;DHT22;37034;47.886;-3.904;2022-12-07T15:11:48;11.00;83.40
51007;DHT22;37034;47.886;-3.904;2022-12-07T15:14:13;11.00;83.50
51007;DHT22;37034;47.886;-3.904;2022-12-07T15:16:40;11.00;83.70
51007;DHT22;37034;47.886;-3.904;2022-12-07T15:19:06;11.00;83.50
51007;DHT22;37034;47.886;-3.904;2022-12-07T15:21:31;10.90;83.50
51007;DHT22;37034;47.886;-3.904;2022-12-07T15:23:57;10.90;83.50
51007;DHT22;37034;47.886;-3.904;2022-12-07T15:26:22;10.70;83.70
51007;DHT22;37034;47.886;-3.904;2022-12-07T15:28:48;10.70;84.00
51007;DHT22;37034;47.886;-3.904;2022-12-07T15:31:14;10.80;84.00
51007;DHT22;37034;47.886;-3.904;2022-12-07T15:33:40;10.80;83.90
51007;DHT22;37034;47.886;-3.904;2022-12-07T15:36:06;10.80;83.90
51007;DHT22;37034;47.886;-3.904;2022-12-07T15:38:31;10.80;84.00
51007;DHT22;37034;47.886;-3.904;2022-12-07T15:40:57;10.90;84.00
51007;DHT22;37034;47.886;-3.904;2022-12-07T15:43:23;10.80;84.00
51007;DHT22;37034;47.886;-3.904;2022-12-07T15:46:07;10.70;84.00
51007;DHT22;37034;47.886;-3.904;2022-12-07T15:48:32;10.70;84.10
51007;DHT22;37034;47.886;-3.904;2022-12-07T15:51:05;10.70;84.10
51007;DHT22;37034;47.886;-3.904;2022-12-07T15:53:31;10.60;84.20
51007;DHT22;37034;47.886;-3.904;2022-12-07T15:55:56;10.60;84.30
51007;DHT22;37034;47.886;-3.904;2022-12-07T15:58:22;10.60;84.30
51007;DHT22;37034;47.886;-3.904;2022-12-07T16:00:47;10.60;84.20
51007;DHT22;37034;47.886;-3.904;2022-12-07T16:03:13;10.60;84.10
51007;DHT22;37034;47.886;-3.904;2022-12-07T16:05:39;10.50;84.20
51007;DHT22;37034;47.886;-3.904;2022-12-07T16:08:04;10.50;84.30
51007;DHT22;37034;47.886;-3.904;2022-12-07T16:10:30;10.50;84.30
51007;DHT22;37034;47.886;-3.904;2022-12-07T16:12:55;10.50;84.50
51007;DHT22;37034;47.886;-3.904;2022-12-07T16:15:21;10.40;84.30
51007;DHT22;37034;47.886;-3.904;2022-12-07T16:17:47;10.40;84.40
51007;DHT22;37034;47.886;-3.904;2022-12-07T16:20:12;10.30;84.40
51007;DHT22;37034;47.886;-3.904;2022-12-07T16:22:38;10.30;84.50
51007;DHT22;37034;47.886;-3.904;2022-12-07T16:25:03;10.30;84.40
51007;DHT22;37034;47.886;-3.904;2022-12-07T16:27:29;10.30;84.00
51007;DHT22;37034;47.886;-3.904;2022-12-07T16:29:54;10.20;83.90
51007;DHT22;37034;47.886;-3.904;2022-12-07T16:32:20;10.10;84.10
51007;DHT22;37034;47.886;-3.904;2022-12-07T16:34:45;10.10;84.30
51007;DHT22;37034;47.886;-3.904;2022-12-07T16:37:11;10.00;84.50
51007;DHT22;37034;47.886;-3.904;2022-12-07T16:39:36;10.00;84.80
51007;DHT22;37034;47.886;-3.904;2022-12-07T16:42:02;9.90;84.90
51007;DHT22;37034;47.886;-3.904;2022-12-07T16:44:28;9.90;85.10
51007;DHT22;37034;47.886;-3.904;2022-12-07T16:46:53;9.80;85.10
51007;DHT22;37034;47.886;-3.904;2022-12-07T16:49:19;9.80;85.30
51007;DHT22;37034;47.886;-3.904;2022-12-07T16:51:45;9.70;85.20
51007;DHT22;37034;47.886;-3.904;2022-12-07T16:54:11;9.70;85.20
51007;DHT22;37034;47.886;-3.904;2022-12-07T16:56:37;9.70;85.20
51007;DHT22;37034;47.886;-3.904;2022-12-07T16:59:04;9.70;85.40
51007;DHT22;37034;47.886;-3.904;2022-12-07T17:01:29;9.60;85.20
51007;DHT22;37034;47.886;-3.904;2022-12-07T17:03:56;9.60;85.50
51007;DHT22;37034;47.886;-3.904;2022-12-07T17:06:24;9.60;86.10
51007;DHT22;37034;47.886;-3.904;2022-12-07T17:08:50;9.50;86.30
51007;DHT22;37034;47.886;-3.904;2022-12-07T17:11:17;9.40;85.90
51007;DHT22;37034;47.886;-3.904;2022-12-07T17:13:43;9.40;86.10
51007;DHT22;37034;47.886;-3.904;2022-12-07T17:16:28;9.40;86.40
51007;DHT22;37034;47.886;-3.904;2022-12-07T17:18:53;9.30;86.30
51007;DHT22;37034;47.886;-3.904;2022-12-07T17:21:19;9.30;86.90
51007;DHT22;37034;47.886;-3.904;2022-12-07T17:23:45;9.30;86.60
51007;DHT22;37034;47.886;-3.904;2022-12-07T17:26:12;9.30;86.40
51007;DHT22;37034;47.886;-3.904;2022-12-07T17:28:38;9.20;86.50